ADDS METAR Data INFO
IDs: Format: Raw Decoded Include TAF

Data at: 0404 UTC 11 Dec 2017

KDXR 110353Z AUTO 22007KT 10SM FEW110 01/M06 A2997 RMK AO2 SLP153 T00061061
KDXR 110253Z 23006KT 10SM FEW100 FEW120 01/M06 A2998 RMK AO2 SLP154 T00111061 51010
KDXR 110153Z 22007KT 10SM CLR 01/M06 A2997 RMK AO2 SLP153 T00061061
KDXR 110053Z 23005KT 10SM CLR 01/M06 A2997 RMK AO2 SLP152 T00111061
KDXR 102353Z 23009KT 10SM CLR 02/M06 A2995 RMK AO2 SLP145 T00171061 10028 20006 51014
KDXR 102253Z 25005KT 10SM OVC060 01/M06 A2994 RMK AO2 SLP142 T00111056
KDXR 102153Z 00000KT 10SM OVC055 01/M04 A2992 RMK AO2 SLP135 T00111044
KDXR 102053Z 23004KT 10SM OVC060 02/M05 A2991 RMK AO2 SLP131 T00171050 53015
KDXR 101953Z 28006KT 10SM BKN050 OVC055 02/M06 A2989 RMK AO2 SLP125 T00221061
KDXR 101855Z 26010G20KT 10SM BKN038 OVC048 02/M06 A2988 RMK AO2 T00221056
KDXR 101853Z 25014G20KT 10SM FEW060 02/M06 A2988 RMK AO2 SLP121 T00221056
KDXR 101806Z 26009G18KT 10SM FEW060 03/M06 A2987 RMK AO2 T00281061
KDXR 101753Z 25013G18KT 10SM CLR 03/M06 A2986 RMK AO2 SLP116 T00281061 10028 21028 58002
KDXR 101653Z 27006KT 10SM CLR 02/M06 A2986 RMK AO2 SLP116 T00221061
KDXR 101553Z 28010G18KT 10SM CLR 01/M06 A2987 RMK AO2 SLP118 T00111061
KDXR 101453Z 27005G16KT 10SM CLR 01/M07 A2987 RMK AO2 SLP118 T00061067 51025
KDXR 101353Z 24006KT 10SM CLR M02/M06 A2985 RMK AO2 SLP112 T10171061
KDXR 101253Z 24006KT 10SM CLR M03/M06 A2983 RMK AO2 SLP104 T10281061
KDXR 101153Z AUTO 25005KT 10SM CLR M03/M05 A2979 RMK AO2 SLP094 70025 T10281050 11011 21028 53019
KDXR 101053Z AUTO 28003KT 10SM CLR M02/M04 A2977 RMK AO2 SLP084 T10221044
KDXR 101021Z AUTO 30005KT 10SM SCT011 M02/M04 A2975 RMK AO2 T10171039
KDXR 100953Z AUTO 29004KT 10SM OVC010 M02/M04 A2974 RMK AO2 SLP074 T10171039
KDXR 100951Z AUTO 31004KT 10SM OVC010 M02/M03 A2974 RMK AO2
KDXR 100853Z AUTO 29006KT 10SM OVC009 M02/M03 A2972 RMK AO2 SLP068 T10171033 51009
KDXR 100753Z AUTO 24003KT 10SM BKN011 OVC100 M02/M03 A2972 RMK AO2 SLP067 T10171033
KDXR 100744Z AUTO VRB04KT 10SM BKN011 OVC100 M02/M04 A2971 RMK AO2 T10171039
KDXR 100653Z AUTO 29004KT 10SM BKN060 OVC085 M01/M03 A2971 RMK AO2 SLP062 T10111033
KDXR 100553Z AUTO 26004KT 10SM SCT100 M02/M04 A2969 RMK AO2 SLP058 60003 T10171039 11006 21017 58002
KDXR 100453Z AUTO 00000KT 9SM SCT065 BKN080 M01/M03 A2969 RMK AO2 SNE03 SLP057 P0000 T10111033 400061011
KDXR 100412Z AUTO VRB04KT 7SM BKN031 BKN047 OVC060 M01/M03 A2971 RMK AO2 SNE03 P0000 T10111033
KDXR 100353Z AUTO 00000KT 4SM -SN BR OVC029 M01/M03 A2971 RMK AO2 SLP064 P0000 T10111033
KDXR 100344Z AUTO VRB04KT 3SM -SN BR OVC026 M01/M03 A2971 RMK AO2 P0000 T10111033
KDXR 100328Z AUTO VRB03KT 2SM -SN BR BKN016 OVC025 M01/M03 A2971 RMK AO2 P0000 T10111028
KDXR 100302Z 00000KT 1 1/4SM -SN BR BKN015 OVC022 M01/M03 A2971 RMK AO2 P0000 T10111028
KDXR 100253Z 31004KT 2SM -SN BR FEW011 OVC022 M01/M03 A2970 RMK AO2 SLP061 P0001 60003 T10111028 58001
KDXR 100234Z 29003KT 2 1/2SM -SN BR BKN011 OVC022 M01/M03 A2971 RMK AO2 P0001 T10111028
KDXR 100220Z VRB03KT 2SM -SN BR FEW011 BKN016 OVC023 M01/M02 A2971 RMK AO2 P0000 T10111022
KDXR 100215Z 29003KT 1 3/4SM -SN BR BKN014 OVC023 M01/M02 A2970 RMK AO2 P0000 T10111022
KDXR 100153Z 28003KT 2SM -SN BR FEW011 BKN016 OVC023 M01/M02 A2971 RMK AO2 SLP065 P0001 T10061022
KDXR 100139Z 00000KT 2SM -SN BR FEW011 OVC016 M01/M02 A2971 RMK AO2 P0001 T10061022
KDXR 100113Z 00000KT 1 1/2SM -SN BR OVC020 M01/M02 A2971 RMK AO2 P0000 T10061022
KDXR 100105Z 36004KT 2SM -SN BR OVC022 M01/M03 A2970 RMK AO2 P0000 T10061028
KDXR 100053Z 36005KT 4SM -SN BR BKN019 OVC024 M01/M03 A2970 RMK AO2 UPB19E24SNE19B24 SLP060 P0001 T10061028
KDXR 100011Z 36004KT 4SM -SN BR BKN016 OVC024 M01/M03 A2970 RMK AO2 P0000 T10061028
KDXR 092353Z 35005KT 2 1/2SM -SN BR OVC016 M01/M03 A2970 RMK AO2 SLP062 P0001 60013 T10061028 11006 21011 56012
KDXR 092350Z 35005KT 2 1/2SM -SN BR OVC016 M01/M02 A2971 RMK AO2 P0001
KDXR 092343Z 35005KT 1 3/4SM -SN BR OVC015 M01/M02 A2972 RMK AO2 P0001 T10061022
KDXR 092321Z 36005KT 2 1/2SM -SN BR FEW010 OVC015 M01/M02 A2972 RMK AO2 P0001 T10061022
KDXR 092253Z 36005KT 1 1/2SM -SN BR OVC013 M01/M02 A2972 RMK AO2 SLP067 P0000 T10061022
KDXR 092224Z 01006KT 1 1/2SM -SN BR BKN013 OVC018 M01/M02 A2974 RMK AO2 P0000 T10061022
KDXR 092211Z 01005KT 2 1/2SM -SN BR OVC015 M01/M02 A2973 RMK AO2 P0000 T10061022
KDXR 092208Z 01006KT 3SM -SN BR BKN011 OVC017 M01/M02 A2973 RMK AO2 P0000 T10061022
KDXR 092153Z 36006KT 2SM -SN BR BKN011 OVC017 M01/M02 A2974 RMK AO2 SLP074 P0002 T10061022
KDXR 092120Z 01004KT 1 1/4SM -SN BR OVC008 M01/M02 A2975 RMK AO2 P0001 T10061022
KDXR 092053Z 03005KT 1/2SM SN FZFG VV008 M01/M02 A2977 RMK AO2 SLP086 P0004 60010 T10061022 56018
KDXR 092034Z 04003KT 1/4SM SN FZFG VV009 M01/M02 A2977 RMK AO2 P0003 T10111022
KDXR 091953Z 05005KT 3/4SM -SN BR VV011 M01/M03 A2978 RMK AO2 SLP089 P0003 T10111028
KDXR 091946Z 03005KT 1/2SM -SN FZFG VV011 M01/M03 A2977 RMK AO2 P0003 T10111028
KDXR 091853Z 02004KT 1/4SM SN FZFG VV007 M01/M02 A2980 RMK AO2 SLP093 P0003 T10111022
KDXR 091753Z 03005KT 3/4SM -SN BR VV009 M01/M03 A2983 RMK AO2 SLP104 P0003 60009 T10111028 10006 21011 58034
KDXR 091653Z 05003KT 1/2SM SN FZFG VV009 M01/M03 A2987 RMK AO2 SLP119 P0004 T10111028
KDXR 091607Z 00000KT 1/4SM SN FZFG VV008 M01/M03 A2991 RMK AO2 PRESFR P0001 T10111028